sensor_id;sensor_type;location;lat;lon;timestamp;temperature;humidity
40738;DHT22;54759;48.094;-1.628;2023-04-01T00:00:45;21.30;73.30
40738;DHT22;54759;48.094;-1.628;2023-04-01T00:03:47;21.30;72.90
40738;DHT22;54759;48.094;-1.628;2023-04-01T00:06:49;21.10;72.70
40738;DHT22;54759;48.094;-1.628;2023-04-01T00:09:52;21.30;72.60
40738;DHT22;54759;48.094;-1.628;2023-04-01T00:12:53;21.10;71.90
40738;DHT22;54759;48.094;-1.628;2023-04-01T00:15:56;21.10;72.90
40738;DHT22;54759;48.094;-1.628;2023-04-01T00:19:00;21.30;72.60
40738;DHT22;54759;48.094;-1.628;2023-04-01T00:22:02;21.20;72.40
40738;DHT22;54759;48.094;-1.628;2023-04-01T00:25:05;21.10;72.20
40738;DHT22;54759;48.094;-1.628;2023-04-01T00:28:09;21.20;72.20
40738;DHT22;54759;48.094;-1.628;2023-04-01T00:31:12;21.20;72.20
40738;DHT22;54759;48.094;-1.628;2023-04-01T00:34:16;21.30;72.10
40738;DHT22;54759;48.094;-1.628;2023-04-01T00:37:18;21.20;72.00
40738;DHT22;54759;48.094;-1.628;2023-04-01T00:40:24;21.40;71.90
40738;DHT22;54759;48.094;-1.628;2023-04-01T00:43:26;21.10;71.50
40738;DHT22;54759;48.094;-1.628;2023-04-01T00:46:29;21.20;71.80
40738;DHT22;54759;48.094;-1.628;2023-04-01T00:49:33;21.30;71.60
40738;DHT22;54759;48.094;-1.628;2023-04-01T00:52:37;21.00;71.40
40738;DHT22;54759;48.094;-1.628;2023-04-01T00:55:42;21.30;71.80
40738;DHT22;54759;48.094;-1.628;2023-04-01T00:58:49;21.20;71.50
40738;DHT22;54759;48.094;-1.628;2023-04-01T01:01:52;21.40;71.70
40738;DHT22;54759;48.094;-1.628;2023-04-01T01:04:54;21.20;71.80
40738;DHT22;54759;48.094;-1.628;2023-04-01T01:08:03;21.10;71.70
40738;DHT22;54759;48.094;-1.628;2023-04-01T01:11:08;21.20;71.80
40738;DHT22;54759;48.094;-1.628;2023-04-01T01:14:24;21.20;71.60
40738;DHT22;54759;48.094;-1.628;2023-04-01T01:17:36;21.20;71.60
40738;DHT22;54759;48.094;-1.628;2023-04-01T01:21:06;20.90;71.50
40738;DHT22;54759;48.094;-1.628;2023-04-01T01:24:37;21.10;71.50
40738;DHT22;54759;48.094;-1.628;2023-04-01T01:27:46;21.20;71.50
40738;DHT22;54759;48.094;-1.628;2023-04-01T01:30:51;21.10;71.50
40738;DHT22;54759;48.094;-1.628;2023-04-01T01:34:09;21.30;71.40
40738;DHT22;54759;48.094;-1.628;2023-04-01T01:37:16;21.00;71.30
40738;DHT22;54759;48.094;-1.628;2023-04-01T01:40:18;21.10;71.40
40738;DHT22;54759;48.094;-1.628;2023-04-01T01:43:24;21.10;71.50
40738;DHT22;54759;48.094;-1.628;2023-04-01T01:46:27;21.00;71.20
40738;DHT22;54759;48.094;-1.628;2023-04-01T01:49:32;21.10;71.20
40738;DHT22;54759;48.094;-1.628;2023-04-01T01:52:35;21.10;71.10
40738;DHT22;54759;48.094;-1.628;2023-04-01T01:55:38;20.90;71.30
40738;DHT22;54759;48.094;-1.628;2023-04-01T01:58:43;21.10;71.20
40738;DHT22;54759;48.094;-1.628;2023-04-01T02:01:50;21.10;71.10
40738;DHT22;54759;48.094;-1.628;2023-04-01T02:04:55;21.10;71.70
40738;DHT22;54759;48.094;-1.628;2023-04-01T02:08:02;21.20;71.40
40738;DHT22;54759;48.094;-1.628;2023-04-01T02:11:09;21.10;71.00
40738;DHT22;54759;48.094;-1.628;2023-04-01T02:14:17;21.10;71.10
40738;DHT22;54759;48.094;-1.628;2023-04-01T02:17:22;21.10;71.10
40738;DHT22;54759;48.094;-1.628;2023-04-01T02:20:27;21.00;71.00
40738;DHT22;54759;48.094;-1.628;2023-04-01T02:23:32;21.00;71.10
40738;DHT22;54759;48.094;-1.628;2023-04-01T02:26:35;20.80;70.80
40738;DHT22;54759;48.094;-1.628;2023-04-01T02:29:38;21.10;70.90
40738;DHT22;54759;48.094;-1.628;2023-04-01T02:32:42;21.10;71.00
40738;DHT22;54759;48.094;-1.628;2023-04-01T02:35:44;21.20;70.90
40738;DHT22;54759;48.094;-1.628;2023-04-01T02:38:46;21.00;70.90
40738;DHT22;54759;48.094;-1.628;2023-04-01T02:41:48;21.00;71.30
40738;DHT22;54759;48.094;-1.628;2023-04-01T02:44:49;21.00;70.90
40738;DHT22;54759;48.094;-1.628;2023-04-01T02:47:50;21.00;70.90
40738;DHT22;54759;48.094;-1.628;2023-04-01T02:50:52;20.80;71.20
40738;DHT22;54759;48.094;-1.628;2023-04-01T02:53:54;21.10;71.10
40738;DHT22;54759;48.094;-1.628;2023-04-01T02:56:56;21.00;71.00
40738;DHT22;54759;48.094;-1.628;2023-04-01T02:59:57;21.10;71.60
40738;DHT22;54759;48.094;-1.628;2023-04-01T03:02:59;20.80;71.20
40738;DHT22;54759;48.094;-1.628;2023-04-01T03:06:05;21.30;71.10
40738;DHT22;54759;48.094;-1.628;2023-04-01T03:09:07;21.10;70.70
40738;DHT22;54759;48.094;-1.628;2023-04-01T03:12:09;21.00;70.80
40738;DHT22;54759;48.094;-1.628;2023-04-01T03:15:23;21.00;70.80
40738;DHT22;54759;48.094;-1.628;2023-04-01T03:18:31;21.10;70.60
40738;DHT22;54759;48.094;-1.628;2023-04-01T03:21:32;21.10;70.90
40738;DHT22;54759;48.094;-1.628;2023-04-01T03:24:35;21.00;71.30
40738;DHT22;54759;48.094;-1.628;2023-04-01T03:27:37;21.10;71.00
40738;DHT22;54759;48.094;-1.628;2023-04-01T03:30:39;20.90;70.90
40738;DHT22;54759;48.094;-1.628;2023-04-01T03:33:42;20.90;70.80
40738;DHT22;54759;48.094;-1.628;2023-04-01T03:36:44;21.10;70.90
40738;DHT22;54759;48.094;-1.628;2023-04-01T03:39:47;21.10;71.10
40738;DHT22;54759;48.094;-1.628;2023-04-01T03:42:49;21.00;71.00
40738;DHT22;54759;48.094;-1.628;2023-04-01T03:45:51;21.10;71.10
40738;DHT22;54759;48.094;-1.628;2023-04-01T03:48:52;21.10;70.70
40738;DHT22;54759;48.094;-1.628;2023-04-01T03:51:55;21.10;71.10
40738;DHT22;54759;48.094;-1.628;2023-04-01T03:54:58;21.00;70.90
40738;DHT22;54759;48.094;-1.628;2023-04-01T03:57:59;21.10;71.10
40738;DHT22;54759;48.094;-1.628;2023-04-01T04:01:03;21.00;71.10
40738;DHT22;54759;48.094;-1.628;2023-04-01T04:04:06;21.10;71.10
40738;DHT22;54759;48.094;-1.628;2023-04-01T04:07:08;21.10;71.00
40738;DHT22;54759;48.094;-1.628;2023-04-01T04:10:30;21.00;71.00
40738;DHT22;54759;48.094;-1.628;2023-04-01T04:13:32;20.90;71.00
40738;DHT22;54759;48.094;-1.628;2023-04-01T04:16:35;21.00;71.00
40738;DHT22;54759;48.094;-1.628;2023-04-01T04:19:37;21.00;70.80
40738;DHT22;54759;48.094;-1.628;2023-04-01T04:22:39;21.10;71.20
40738;DHT22;54759;48.094;-1.628;2023-04-01T04:25:54;21.00;71.50
40738;DHT22;54759;48.094;-1.628;2023-04-01T04:28:56;21.00;71.00
40738;DHT22;54759;48.094;-1.628;2023-04-01T04:31:57;21.00;71.10
40738;DHT22;54759;48.094;-1.628;2023-04-01T04:35:04;21.00;71.30
40738;DHT22;54759;48.094;-1.628;2023-04-01T04:38:08;20.80;71.00
40738;DHT22;54759;48.094;-1.628;2023-04-01T04:41:10;21.00;71.30
40738;DHT22;54759;48.094;-1.628;2023-04-01T04:44:15;20.90;71.00
40738;DHT22;54759;48.094;-1.628;2023-04-01T04:47:17;21.00;71.30
40738;DHT22;54759;48.094;-1.628;2023-04-01T04:50:18;21.00;71.10
40738;DHT22;54759;48.094;-1.628;2023-04-01T04:53:20;21.10;71.20
40738;DHT22;54759;48.094;-1.628;2023-04-01T04:56:22;21.60;72.00
40738;DHT22;54759;48.094;-1.628;2023-04-01T04:59:36;20.90;71.20
40738;DHT22;54759;48.094;-1.628;2023-04-01T05:02:43;21.00;71.10
40738;DHT22;54759;48.094;-1.628;2023-04-01T05:05:48;20.80;71.10
40738;DHT22;54759;48.094;-1.628;2023-04-01T05:08:51;21.00;71.30
40738;DHT22;54759;48.094;-1.628;2023-04-01T05:11:59;21.00;71.20
40738;DHT22;54759;48.094;-1.628;2023-04-01T05:15:06;20.90;71.00
40738;DHT22;54759;48.094;-1.628;2023-04-01T05:18:11;21.00;71.10
40738;DHT22;54759;48.094;-1.628;2023-04-01T05:21:13;21.00;71.30
40738;DHT22;54759;48.094;-1.628;2023-04-01T05:24:14;20.90;71.50
40738;DHT22;54759;48.094;-1.628;2023-04-01T05:27:17;20.90;68.70
40738;DHT22;54759;48.094;-1.628;2023-04-01T05:30:20;20.80;71.20
40738;DHT22;54759;48.094;-1.628;2023-04-01T05:33:42;20.90;71.90
40738;DHT22;54759;48.094;-1.628;2023-04-01T05:36:43;21.00;71.50
40738;DHT22;54759;48.094;-1.628;2023-04-01T05:39:45;20.90;71.10
40738;DHT22;54759;48.094;-1.628;2023-04-01T05:42:47;20.80;71.40
40738;DHT22;54759;48.094;-1.628;2023-04-01T05:45:50;20.90;72.00
40738;DHT22;54759;48.094;-1.628;2023-04-01T05:49:07;20.90;71.70
40738;DHT22;54759;48.094;-1.628;2023-04-01T05:52:09;20.80;71.60
40738;DHT22;54759;48.094;-1.628;2023-04-01T05:55:11;20.90;71.70
40738;DHT22;54759;48.094;-1.628;2023-04-01T05:58:14;20.90;72.10
40738;DHT22;54759;48.094;-1.628;2023-04-01T06:01:18;20.80;71.70
40738;DHT22;54759;48.094;-1.628;2023-04-01T06:04:20;20.90;71.70
40738;DHT22;54759;48.094;-1.628;2023-04-01T06:07:22;21.30;68.70
40738;DHT22;54759;48.094;-1.628;2023-04-01T06:10:39;20.90;71.40
40738;DHT22;54759;48.094;-1.628;2023-04-01T06:13:57;20.90;71.30
40738;DHT22;54759;48.094;-1.628;2023-04-01T06:17:15;20.70;71.60
40738;DHT22;54759;48.094;-1.628;2023-04-01T06:20:24;20.70;71.50
40738;DHT22;54759;48.094;-1.628;2023-04-01T06:23:40;20.90;71.60
40738;DHT22;54759;48.094;-1.628;2023-04-01T06:26:52;20.80;71.50
40738;DHT22;54759;48.094;-1.628;2023-04-01T06:30:10;21.00;71.70
40738;DHT22;54759;48.094;-1.628;2023-04-01T06:33:29;20.90;71.60
40738;DHT22;54759;48.094;-1.628;2023-04-01T06:36:43;20.80;71.60
40738;DHT22;54759;48.094;-1.628;2023-04-01T06:40:02;21.00;71.60
40738;DHT22;54759;48.094;-1.628;2023-04-01T06:43:14;20.90;71.60
40738;DHT22;54759;48.094;-1.628;2023-04-01T06:46:37;20.80;71.60
40738;DHT22;54759;48.094;-1.628;2023-04-01T06:50:07;20.80;71.70
40738;DHT22;54759;48.094;-1.628;2023-04-01T06:53:33;21.20;68.30
40738;DHT22;54759;48.094;-1.628;2023-04-01T06:56:51;20.90;71.70
40738;DHT22;54759;48.094;-1.628;2023-04-01T07:00:00;20.80;71.50
40738;DHT22;54759;48.094;-1.628;2023-04-01T07:03:13;20.80;71.60
40738;DHT22;54759;48.094;-1.628;2023-04-01T07:06:25;20.80;71.70
40738;DHT22;54759;48.094;-1.628;2023-04-01T07:09:33;20.90;71.80
40738;DHT22;54759;48.094;-1.628;2023-04-01T07:13:02;20.80;72.40
40738;DHT22;54759;48.094;-1.628;2023-04-01T07:16:21;20.80;71.80
40738;DHT22;54759;48.094;-1.628;2023-04-01T07:19:30;20.90;71.10
40738;DHT22;54759;48.094;-1.628;2023-04-01T07:22:41;20.80;71.70
40738;DHT22;54759;48.094;-1.628;2023-04-01T07:25:58;20.80;71.60
40738;DHT22;54759;48.094;-1.628;2023-04-01T07:29:21;20.90;71.80
40738;DHT22;54759;48.094;-1.628;2023-04-01T07:32:35;20.90;71.70
40738;DHT22;54759;48.094;-1.628;2023-04-01T07:35:47;20.90;71.70
40738;DHT22;54759;48.094;-1.628;2023-04-01T07:38:59;20.80;71.70
40738;DHT22;54759;48.094;-1.628;2023-04-01T07:42:28;20.80;71.60
40738;DHT22;54759;48.094;-1.628;2023-04-01T07:45:36;20.80;71.70
40738;DHT22;54759;48.094;-1.628;2023-04-01T07:48:44;20.90;71.70
40738;DHT22;54759;48.094;-1.628;2023-04-01T07:51:56;20.80;71.70
40738;DHT22;54759;48.094;-1.628;2023-04-01T07:55:05;21.60;72.10
40738;DHT22;54759;48.094;-1.628;2023-04-01T07:58:15;20.90;71.50
40738;DHT22;54759;48.094;-1.628;2023-04-01T08:01:24;21.00;71.80
40738;DHT22;54759;48.094;-1.628;2023-04-01T08:04:44;20.90;72.30
40738;DHT22;54759;48.094;-1.628;2023-04-01T08:07:57;20.90;71.70
40738;DHT22;54759;48.094;-1.628;2023-04-01T08:11:27;21.10;71.70
40738;DHT22;54759;48.094;-1.628;2023-04-01T08:14:56;20.90;71.70
40738;DHT22;54759;48.094;-1.628;2023-04-01T08:18:28;20.90;71.70
40738;DHT22;54759;48.094;-1.628;2023-04-01T08:21:35;21.20;71.90
40738;DHT22;54759;48.094;-1.628;2023-04-01T08:24:42;21.10;71.80
40738;DHT22;54759;48.094;-1.628;2023-04-01T08:28:00;21.00;71.60
40738;DHT22;54759;48.094;-1.628;2023-04-01T08:31:06;21.00;71.50
40738;DHT22;54759;48.094;-1.628;2023-04-01T08:34:16;21.00;71.50
40738;DHT22;54759;48.094;-1.628;2023-04-01T08:37:25;21.30;68.10
40738;DHT22;54759;48.094;-1.628;2023-04-01T08:40:54;21.00;71.40
40738;DHT22;54759;48.094;-1.628;2023-04-01T08:47:28;21.10;71.50
40738;DHT22;54759;48.094;-1.628;2023-04-01T08:50:48;21.00;71.40
40738;DHT22;54759;48.094;-1.628;2023-04-01T08:54:13;21.00;71.30
40738;DHT22;54759;48.094;-1.628;2023-04-01T08:57:25;21.10;71.50
40738;DHT22;54759;48.094;-1.628;2023-04-01T09:00:59;21.30;71.30
40738;DHT22;54759;48.094;-1.628;2023-04-01T09:04:29;21.10;71.30
40738;DHT22;54759;48.094;-1.628;2023-04-01T09:07:40;21.10;71.10
40738;DHT22;54759;48.094;-1.628;2023-04-01T09:10:57;21.00;71.00
40738;DHT22;54759;48.094;-1.628;2023-04-01T09:14:31;21.50;71.40
40738;DHT22;54759;48.094;-1.628;2023-04-01T09:21:32;21.10;71.00
40738;DHT22;54759;48.094;-1.628;2023-04-01T09:24:52;21.20;70.80
40738;DHT22;54759;48.094;-1.628;2023-04-01T09:28:05;21.40;70.80
40738;DHT22;54759;48.094;-1.628;2023-04-01T09:31:26;21.10;70.60
40738;DHT22;54759;48.094;-1.628;2023-04-01T09:34:57;21.30;70.70
40738;DHT22;54759;48.094;-1.628;2023-04-01T09:38:20;21.10;70.60
40738;DHT22;54759;48.094;-1.628;2023-04-01T09:41:28;21.20;70.40
40738;DHT22;54759;48.094;-1.628;2023-04-01T09:44:40;21.00;70.00
40738;DHT22;54759;48.094;-1.628;2023-04-01T09:48:02;21.10;70.20
40738;DHT22;54759;48.094;-1.628;2023-04-01T09:51:13;21.20;70.30
40738;DHT22;54759;48.094;-1.628;2023-04-01T09:54:26;21.20;70.00
40738;DHT22;54759;48.094;-1.628;2023-04-01T09:57:48;21.30;69.90
40738;DHT22;54759;48.094;-1.628;2023-04-01T10:04:52;21.30;69.90
40738;DHT22;54759;48.094;-1.628;2023-04-01T10:08:20;21.20;69.90
40738;DHT22;54759;48.094;-1.628;2023-04-01T10:22:11;21.20;69.60
40738;DHT22;54759;48.094;-1.628;2023-04-01T10:25:34;21.30;69.50
40738;DHT22;54759;48.094;-1.628;2023-04-01T10:28:59;21.30;69.80
40738;DHT22;54759;48.094;-1.628;2023-04-01T10:36:06;21.30;69.80
40738;DHT22;54759;48.094;-1.628;2023-04-01T10:43:26;21.30;69.60
40738;DHT22;54759;48.094;-1.628;2023-04-01T10:50:24;21.30;69.40
40738;DHT22;54759;48.094;-1.628;2023-04-01T10:53:40;21.30;69.30
40738;DHT22;54759;48.094;-1.628;2023-04-01T10:57:16;21.30;69.20
40738;DHT22;54759;48.094;-1.628;2023-04-01T11:00:58;21.40;69.30
40738;DHT22;54759;48.094;-1.628;2023-04-01T11:04:40;21.40;69.10
40738;DHT22;54759;48.094;-1.628;2023-04-01T11:08:28;21.40;69.10
40738;DHT22;54759;48.094;-1.628;2023-04-01T11:25:49;21.40;68.50
40738;DHT22;54759;48.094;-1.628;2023-04-01T11:29:27;21.40;68.50
40738;DHT22;54759;48.094;-1.628;2023-04-01T11:32:46;21.50;68.60
40738;DHT22;54759;48.094;-1.628;2023-04-01T11:36:00;21.50;68.40
40738;DHT22;54759;48.094;-1.628;2023-04-01T11:39:18;21.50;68.40
40738;DHT22;54759;48.094;-1.628;2023-04-01T11:42:46;21.50;68.90
40738;DHT22;54759;48.094;-1.628;2023-04-01T11:46:11;21.50;68.40
40738;DHT22;54759;48.094;-1.628;2023-04-01T11:49:28;21.50;68.30
40738;DHT22;54759;48.094;-1.628;2023-04-01T11:52:55;21.50;68.40
40738;DHT22;54759;48.094;-1.628;2023-04-01T11:56:09;21.50;68.50
40738;DHT22;54759;48.094;-1.628;2023-04-01T12:02:49;21.50;68.70
40738;DHT22;54759;48.094;-1.628;2023-04-01T12:06:02;21.50;68.90
40738;DHT22;54759;48.094;-1.628;2023-04-01T12:09:12;21.60;69.70
40738;DHT22;54759;48.094;-1.628;2023-04-01T12:12:23;21.60;68.80
40738;DHT22;54759;48.094;-1.628;2023-04-01T12:15:32;21.50;69.20
40738;DHT22;54759;48.094;-1.628;2023-04-01T12:18:38;21.50;69.40
40738;DHT22;54759;48.094;-1.628;2023-04-01T12:21:48;22.20;70.30
40738;DHT22;54759;48.094;-1.628;2023-04-01T12:24:58;21.50;69.60
40738;DHT22;54759;48.094;-1.628;2023-04-01T12:28:06;21.60;69.90
40738;DHT22;54759;48.094;-1.628;2023-04-01T12:31:23;21.40;69.90
40738;DHT22;54759;48.094;-1.628;2023-04-01T12:34:44;21.60;70.30
40738;DHT22;54759;48.094;-1.628;2023-04-01T12:38:03;21.50;70.40
40738;DHT22;54759;48.094;-1.628;2023-04-01T12:41:16;21.50;70.40
40738;DHT22;54759;48.094;-1.628;2023-04-01T12:44:34;21.50;70.60
40738;DHT22;54759;48.094;-1.628;2023-04-01T12:48:00;21.40;70.60
40738;DHT22;54759;48.094;-1.628;2023-04-01T12:51:23;21.50;70.60
40738;DHT22;54759;48.094;-1.628;2023-04-01T12:54:47;21.40;70.60
40738;DHT22;54759;48.094;-1.628;2023-04-01T12:58:17;21.50;70.40
40738;DHT22;54759;48.094;-1.628;2023-04-01T13:01:42;21.60;70.40
40738;DHT22;54759;48.094;-1.628;2023-04-01T13:05:10;21.50;69.90
40738;DHT22;54759;48.094;-1.628;2023-04-01T13:08:27;21.90;69.90
40738;DHT22;54759;48.094;-1.628;2023-04-01T13:11:39;21.60;68.90
40738;DHT22;54759;48.094;-1.628;2023-04-01T13:15:03;21.60;69.30
40738;DHT22;54759;48.094;-1.628;2023-04-01T13:18:20;21.60;69.50
40738;DHT22;54759;48.094;-1.628;2023-04-01T13:21:33;21.30;68.80
40738;DHT22;54759;48.094;-1.628;2023-04-01T13:24:45;21.50;68.60
40738;DHT22;54759;48.094;-1.628;2023-04-01T13:27:53;21.60;68.60
40738;DHT22;54759;48.094;-1.628;2023-04-01T13:31:02;21.60;68.60
40738;DHT22;54759;48.094;-1.628;2023-04-01T13:34:19;21.70;68.30
40738;DHT22;54759;48.094;-1.628;2023-04-01T13:37:38;21.50;68.00
40738;DHT22;54759;48.094;-1.628;2023-04-01T13:40:51;21.50;67.90
40738;DHT22;54759;48.094;-1.628;2023-04-01T13:44:11;21.60;67.90
40738;DHT22;54759;48.094;-1.628;2023-04-01T13:50:58;21.50;67.70
40738;DHT22;54759;48.094;-1.628;2023-04-01T13:57:33;21.60;67.80
40738;DHT22;54759;48.094;-1.628;2023-04-01T14:00:45;21.70;67.80
40738;DHT22;54759;48.094;-1.628;2023-04-01T14:04:02;21.60;67.50
40738;DHT22;54759;48.094;-1.628;2023-04-01T14:07:14;21.70;67.60
40738;DHT22;54759;48.094;-1.628;2023-04-01T14:10:31;21.70;67.70
40738;DHT22;54759;48.094;-1.628;2023-04-01T14:13:43;21.70;67.70
40738;DHT22;54759;48.094;-1.628;2023-04-01T14:17:03;21.70;67.60
40738;DHT22;54759;48.094;-1.628;2023-04-01T14:20:21;21.60;67.40
40738;DHT22;54759;48.094;-1.628;2023-04-01T14:23:35;21.80;67.50
40738;DHT22;54759;48.094;-1.628;2023-04-01T14:26:57;22.00;67.50
40738;DHT22;54759;48.094;-1.628;2023-04-01T14:30:26;21.60;67.20
40738;DHT22;54759;48.094;-1.628;2023-04-01T14:33:37;21.60;63.70
40738;DHT22;54759;48.094;-1.628;2023-04-01T14:36:50;21.70;67.10
40738;DHT22;54759;48.094;-1.628;2023-04-01T14:40:11;21.60;67.00
40738;DHT22;54759;48.094;-1.628;2023-04-01T14:43:25;21.60;67.10
40738;DHT22;54759;48.094;-1.628;2023-04-01T14:46:43;21.50;66.90
40738;DHT22;54759;48.094;-1.628;2023-04-01T14:49:52;21.70;66.90
40738;DHT22;54759;48.094;-1.628;2023-04-01T14:52:58;21.80;67.00
40738;DHT22;54759;48.094;-1.628;2023-04-01T14:56:02;21.50;66.80
40738;DHT22;54759;48.094;-1.628;2023-04-01T14:59:08;21.50;67.00
40738;DHT22;54759;48.094;-1.628;2023-04-01T15:02:26;21.70;67.10
40738;DHT22;54759;48.094;-1.628;2023-04-01T15:05:42;21.60;67.20
40738;DHT22;54759;48.094;-1.628;2023-04-01T15:08:55;21.70;67.50
40738;DHT22;54759;48.094;-1.628;2023-04-01T15:12:11;21.70;64.10
40738;DHT22;54759;48.094;-1.628;2023-04-01T15:15:16;21.70;67.70
40738;DHT22;54759;48.094;-1.628;2023-04-01T15:18:26;21.60;68.00
40738;DHT22;54759;48.094;-1.628;2023-04-01T15:21:36;21.70;67.70
40738;DHT22;54759;48.094;-1.628;2023-04-01T15:24:47;22.50;68.50
40738;DHT22;54759;48.094;-1.628;2023-04-01T15:27:51;21.50;67.40
40738;DHT22;54759;48.094;-1.628;2023-04-01T15:31:00;21.70;67.40
40738;DHT22;54759;48.094;-1.628;2023-04-01T15:34:23;21.60;67.20
40738;DHT22;54759;48.094;-1.628;2023-04-01T15:37:36;22.10;63.90
40738;DHT22;54759;48.094;-1.628;2023-04-01T15:40:44;21.70;66.90
40738;DHT22;54759;48.094;-1.628;2023-04-01T15:43:48;21.70;66.60
40738;DHT22;54759;48.094;-1.628;2023-04-01T15:46:50;21.60;66.50
40738;DHT22;54759;48.094;-1.628;2023-04-01T15:49:56;21.80;66.50
40738;DHT22;54759;48.094;-1.628;2023-04-01T15:53:08;21.70;66.00
40738;DHT22;54759;48.094;-1.628;2023-04-01T15:56:22;21.90;65.80
40738;DHT22;54759;48.094;-1.628;2023-04-01T15:59:43;21.70;65.50
40738;DHT22;54759;48.094;-1.628;2023-04-01T16:02:49;21.70;65.30
40738;DHT22;54759;48.094;-1.628;2023-04-01T16:06:11;21.70;65.30
40738;DHT22;54759;48.094;-1.628;2023-04-01T16:09:31;21.70;65.00
40738;DHT22;54759;48.094;-1.628;2023-04-01T16:12:50;21.80;65.00
40738;DHT22;54759;48.094;-1.628;2023-04-01T16:15:59;21.80;64.90
40738;DHT22;54759;48.094;-1.628;2023-04-01T16:19:16;21.60;64.60
40738;DHT22;54759;48.094;-1.628;2023-04-01T16:22:23;21.70;64.60
40738;DHT22;54759;48.094;-1.628;2023-04-01T16:25:33;21.70;64.70
40738;DHT22;54759;48.094;-1.628;2023-04-01T16:28:42;21.70;64.80
40738;DHT22;54759;48.094;-1.628;2023-04-01T16:31:53;21.60;64.70
40738;DHT22;54759;48.094;-1.628;2023-04-01T16:35:04;21.70;64.80
40738;DHT22;54759;48.094;-1.628;2023-04-01T16:38:20;21.80;65.00
40738;DHT22;54759;48.094;-1.628;2023-04-01T16:41:28;21.80;65.00
40738;DHT22;54759;48.094;-1.628;2023-04-01T16:44:31;21.90;65.20
40738;DHT22;54759;48.094;-1.628;2023-04-01T16:47:48;21.70;65.10
40738;DHT22;54759;48.094;-1.628;2023-04-01T16:50:55;21.70;65.10
40738;DHT22;54759;48.094;-1.628;2023-04-01T16:54:04;21.90;65.40
40738;DHT22;54759;48.094;-1.628;2023-04-01T16:57:18;21.70;65.20
40738;DHT22;54759;48.094;-1.628;2023-04-01T17:00:26;21.70;65.20
40738;DHT22;54759;48.094;-1.628;2023-04-01T17:03:32;21.60;65.20
40738;DHT22;54759;48.094;-1.628;2023-04-01T17:06:42;21.80;65.20
40738;DHT22;54759;48.094;-1.628;2023-04-01T17:10:02;21.60;65.10
40738;DHT22;54759;48.094;-1.628;2023-04-01T17:16:52;21.80;65.40
40738;DHT22;54759;48.094;-1.628;2023-04-01T17:20:10;21.70;65.40
40738;DHT22;54759;48.094;-1.628;2023-04-01T17:23:20;21.80;65.40
40738;DHT22;54759;48.094;-1.628;2023-04-01T17:26:32;21.80;65.40
40738;DHT22;54759;48.094;-1.628;2023-04-01T17:29:55;21.70;61.80
40738;DHT22;54759;48.094;-1.628;2023-04-01T17:33:18;21.80;65.30
40738;DHT22;54759;48.094;-1.628;2023-04-01T17:36:36;21.90;65.40
40738;DHT22;54759;48.094;-1.628;2023-04-01T17:39:51;21.80;65.20
40738;DHT22;54759;48.094;-1.628;2023-04-01T17:43:00;21.60;65.10
40738;DHT22;54759;48.094;-1.628;2023-04-01T17:46:19;21.70;65.10
40738;DHT22;54759;48.094;-1.628;2023-04-01T17:49:30;21.80;65.10
40738;DHT22;54759;48.094;-1.628;2023-04-01T17:52:39;21.70;65.00
40738;DHT22;54759;48.094;-1.628;2023-04-01T17:55:50;21.80;65.20
40738;DHT22;54759;48.094;-1.628;2023-04-01T17:59:01;21.90;65.20
40738;DHT22;54759;48.094;-1.628;2023-04-01T18:02:20;21.90;65.30
40738;DHT22;54759;48.094;-1.628;2023-04-01T18:05:30;21.90;65.40
40738;DHT22;54759;48.094;-1.628;2023-04-01T18:08:54;21.80;65.30
40738;DHT22;54759;48.094;-1.628;2023-04-01T18:12:11;21.90;65.60
40738;DHT22;54759;48.094;-1.628;2023-04-01T18:15:28;21.70;65.40
40738;DHT22;54759;48.094;-1.628;2023-04-01T18:18:45;21.70;65.50
40738;DHT22;54759;48.094;-1.628;2023-04-01T18:21:50;21.70;65.60
40738;DHT22;54759;48.094;-1.628;2023-04-01T18:25:01;21.80;65.70
40738;DHT22;54759;48.094;-1.628;2023-04-01T18:28:19;21.80;65.70
40738;DHT22;54759;48.094;-1.628;2023-04-01T18:31:24;21.80;65.70
40738;DHT22;54759;48.094;-1.628;2023-04-01T18:34:42;21.70;65.70
40738;DHT22;54759;48.094;-1.628;2023-04-01T18:37:47;21.70;65.80
40738;DHT22;54759;48.094;-1.628;2023-04-01T18:40:54;21.70;65.80
40738;DHT22;54759;48.094;-1.628;2023-04-01T18:44:12;22.00;66.00
40738;DHT22;54759;48.094;-1.628;2023-04-01T18:47:25;21.80;65.90
40738;DHT22;54759;48.094;-1.628;2023-04-01T18:50:34;21.60;66.10
40738;DHT22;54759;48.094;-1.628;2023-04-01T18:53:41;21.70;66.20
40738;DHT22;54759;48.094;-1.628;2023-04-01T18:56:45;21.70;66.30
40738;DHT22;54759;48.094;-1.628;2023-04-01T18:59:52;22.30;66.90
40738;DHT22;54759;48.094;-1.628;2023-04-01T19:03:00;21.70;66.60
40738;DHT22;54759;48.094;-1.628;2023-04-01T19:06:14;21.60;66.70
40738;DHT22;54759;48.094;-1.628;2023-04-01T19:09:22;21.80;66.90
40738;DHT22;54759;48.094;-1.628;2023-04-01T19:12:35;21.60;66.80
40738;DHT22;54759;48.094;-1.628;2023-04-01T19:15:44;21.60;67.10
40738;DHT22;54759;48.094;-1.628;2023-04-01T19:19:01;21.50;67.10
40738;DHT22;54759;48.094;-1.628;2023-04-01T19:22:21;21.80;68.00
40738;DHT22;54759;48.094;-1.628;2023-04-01T19:25:31;21.60;64.40
40738;DHT22;54759;48.094;-1.628;2023-04-01T19:28:42;21.60;67.70
40738;DHT22;54759;48.094;-1.628;2023-04-01T19:31:54;21.70;67.80
40738;DHT22;54759;48.094;-1.628;2023-04-01T19:35:13;21.70;68.10
40738;DHT22;54759;48.094;-1.628;2023-04-01T19:38:26;21.90;64.80
40738;DHT22;54759;48.094;-1.628;2023-04-01T19:41:36;21.60;68.30
40738;DHT22;54759;48.094;-1.628;2023-04-01T19:44:53;21.60;68.30
40738;DHT22;54759;48.094;-1.628;2023-04-01T19:48:07;21.60;68.50
40738;DHT22;54759;48.094;-1.628;2023-04-01T19:51:15;21.50;68.50
40738;DHT22;54759;48.094;-1.628;2023-04-01T19:54:30;21.80;68.90
40738;DHT22;54759;48.094;-1.628;2023-04-01T19:57:44;21.60;69.20
40738;DHT22;54759;48.094;-1.628;2023-04-01T20:00:50;21.50;69.10
40738;DHT22;54759;48.094;-1.628;2023-04-01T20:03:55;21.60;69.10
40738;DHT22;54759;48.094;-1.628;2023-04-01T20:07:00;21.50;69.10
40738;DHT22;54759;48.094;-1.628;2023-04-01T20:10:10;21.60;69.40
40738;DHT22;54759;48.094;-1.628;2023-04-01T20:13:21;21.50;69.60
40738;DHT22;54759;48.094;-1.628;2023-04-01T20:16:37;21.60;69.50
40738;DHT22;54759;48.094;-1.628;2023-04-01T20:19:44;21.40;69.70
40738;DHT22;54759;48.094;-1.628;2023-04-01T20:23:07;21.70;69.90
40738;DHT22;54759;48.094;-1.628;2023-04-01T20:26:21;21.30;69.90
40738;DHT22;54759;48.094;-1.628;2023-04-01T20:29:37;21.40;70.10
40738;DHT22;54759;48.094;-1.628;2023-04-01T20:32:57;21.20;70.10
40738;DHT22;54759;48.094;-1.628;2023-04-01T20:36:09;21.40;70.30
40738;DHT22;54759;48.094;-1.628;2023-04-01T20:39:24;21.30;70.20
40738;DHT22;54759;48.094;-1.628;2023-04-01T20:42:45;21.40;70.40
40738;DHT22;54759;48.094;-1.628;2023-04-01T20:45:54;21.40;70.50
40738;DHT22;54759;48.094;-1.628;2023-04-01T20:49:14;21.30;70.50
40738;DHT22;54759;48.094;-1.628;2023-04-01T20:52:26;21.20;70.60